ACA112 OOMS-VGHS
Flight info
| Callsign | ACA112 |
|---|---|
| Flight time | 3h 42m |
| Altitude | 37000 |
| Route | MCT Q250 KIPOL N881 RASKI L639 ISLIL/N0487F390 L639 BPL A791 CEA A462 DAC |
| Aircraft | B77W/H-SDE1E2E3FGHIJ2J3J4J5M1RWXY/LB1D1 |
Departure
| Time | 2026-05-08 14:22 |
|---|---|
| Airport | Muscat International Airport (OOMS) |
Arrival
| Time | 2026-05-08 18:05 |
|---|---|
| Airport | Hazrat Shahjalal International Airport (VGHS) |
| Time | Latitude | Longitude | Altitude | Speed | Heading |
|---|---|---|---|---|---|
| 2026-05-08 13:47 | 23.60162 | 58.28406 | 39 ft | 0 kts | 175° |
| 2026-05-08 14:13 | 23.60179 | 58.28404 | 37 ft | 4 kts | 175° |
| 2026-05-08 14:13 | 23.60206 | 58.28401 | 36 ft | 4 kts | 175° |
| 2026-05-08 14:14 | 23.60229 | 58.28399 | 37 ft | 4 kts | 167° |
| 2026-05-08 14:14 | 23.60250 | 58.28391 | 36 ft | 4 kts | 137° |
| 2026-05-08 14:14 | 23.60262 | 58.28372 | 38 ft | 4 kts | 104° |
| 2026-05-08 14:14 | 23.60265 | 58.28344 | 37 ft | 4 kts | 88° |
| 2026-05-08 14:15 | 23.60264 | 58.28324 | 39 ft | 4 kts | 84° |
| 2026-05-08 14:15 | 23.60263 | 58.28313 | 39 ft | 0 kts | 85° |
| 2026-05-08 14:17 | 23.60266 | 58.28325 | 39 ft | 5 kts | 69° |
| 2026-05-08 14:17 | 23.60318 | 58.28352 | 39 ft | 13 kts | 0° |
| 2026-05-08 14:18 | 23.60439 | 58.28345 | 39 ft | 21 kts | 355° |
| 2026-05-08 14:18 | 23.60591 | 58.28338 | 39 ft | 22 kts | 16° |
| 2026-05-08 14:18 | 23.60631 | 58.28434 | 39 ft | 17 kts | 84° |
| 2026-05-08 14:18 | 23.60643 | 58.28580 | 40 ft | 21 kts | 85° |
| 2026-05-08 14:19 | 23.60656 | 58.28737 | 39 ft | 21 kts | 85° |
| 2026-05-08 14:19 | 23.60598 | 58.28846 | 39 ft | 13 kts | 141° |
| 2026-05-08 14:19 | 23.60584 | 58.28946 | 39 ft | 17 kts | 88° |
| 2026-05-08 14:19 | 23.60597 | 58.29107 | 39 ft | 23 kts | 84° |
| 2026-05-08 14:20 | 23.60611 | 58.29283 | 39 ft | 23 kts | 85° |
| 2026-05-08 14:20 | 23.60625 | 58.29459 | 39 ft | 23 kts | 85° |
| 2026-05-08 14:20 | 23.60638 | 58.29635 | 39 ft | 23 kts | 85° |
| 2026-05-08 14:20 | 23.60695 | 58.29711 | 39 ft | 14 kts | 9° |
| 2026-05-08 14:21 | 23.60793 | 58.29703 | 39 ft | 14 kts | 355° |
| 2026-05-08 14:21 | 23.60887 | 58.29678 | 39 ft | 14 kts | 316° |
| 2026-05-08 14:21 | 23.60896 | 58.29573 | 38 ft | 11 kts | 265° |
| 2026-05-08 14:21 | 23.60895 | 58.29554 | 38 ft | 0 kts | 265° |
| 2026-05-08 14:22 | 23.60881 | 58.29381 | 39 ft | 67 kts | 265° |
| 2026-05-08 14:22 | 23.60817 | 58.28506 | 40 ft | 161 kts | 265° |
| 2026-05-08 14:22 | 23.60779 | 58.27061 | 389 ft | 205 kts | 269° |
| 2026-05-08 14:22 | 23.60732 | 58.25443 | 1066 ft | 226 kts | 270° |
| 2026-05-08 14:23 | 23.60671 | 58.23698 | 2006 ft | 229 kts | 270° |
| 2026-05-08 14:23 | 23.60605 | 58.21929 | 2731 ft | 239 kts | 269° |
| 2026-05-08 14:23 | 23.60549 | 58.20099 | 3530 ft | 241 kts | 271° |
| 2026-05-08 14:23 | 23.60889 | 58.18327 | 4244 ft | 240 kts | 300° |
| 2026-05-08 14:24 | 23.61967 | 58.17011 | 4824 ft | 236 kts | 328° |
| 2026-05-08 14:24 | 23.63496 | 58.16365 | 5018 ft | 243 kts | 347° |
| 2026-05-08 14:24 | 23.65195 | 58.15999 | 5165 ft | 249 kts | 350° |
| 2026-05-08 14:24 | 23.66930 | 58.16009 | 5870 ft | 251 kts | 17° |
| 2026-05-08 14:25 | 23.68418 | 58.16921 | 6679 ft | 251 kts | 45° |
| 2026-05-08 14:25 | 23.69338 | 58.18529 | 7453 ft | 252 kts | 73° |
| 2026-05-08 14:25 | 23.69756 | 58.20408 | 8206 ft | 256 kts | 80° |
| 2026-05-08 14:25 | 23.70077 | 58.22329 | 9016 ft | 259 kts | 81° |
| 2026-05-08 14:26 | 23.70398 | 58.24322 | 9532 ft | 278 kts | 81° |
| 2026-05-08 14:26 | 23.70739 | 58.26458 | 10000 ft | 294 kts | 82° |
| 2026-05-08 14:26 | 23.71093 | 58.28706 | 10550 ft | 309 kts | 83° |
| 2026-05-08 14:26 | 23.71099 | 58.31133 | 10726 ft | 333 kts | 98° |
| 2026-05-08 14:27 | 23.70678 | 58.33725 | 10929 ft | 360 kts | 103° |
| 2026-05-08 14:27 | 23.70114 | 58.36473 | 11345 ft | 378 kts | 104° |
| 2026-05-08 14:27 | 23.69527 | 58.39302 | 12069 ft | 386 kts | 104° |
| 2026-05-08 14:27 | 23.68963 | 58.42154 | 12906 ft | 390 kts | 103° |
| 2026-05-08 14:28 | 23.68413 | 58.45078 | 13780 ft | 393 kts | 102° |
| 2026-05-08 14:28 | 23.67881 | 58.48021 | 14547 ft | 397 kts | 102° |
| 2026-05-08 14:28 | 23.67358 | 58.51001 | 15271 ft | 402 kts | 101° |
| 2026-05-08 14:28 | 23.66841 | 58.53996 | 15971 ft | 407 kts | 101° |
| 2026-05-08 14:29 | 23.66318 | 58.57045 | 16692 ft | 412 kts | 101° |
| 2026-05-08 14:29 | 23.65788 | 58.60141 | 17385 ft | 416 kts | 101° |
| 2026-05-08 14:29 | 23.65252 | 58.63276 | 18044 ft | 421 kts | 101° |
| 2026-05-08 14:29 | 23.64709 | 58.66444 | 18621 ft | 426 kts | 101° |
| 2026-05-08 14:30 | 23.64167 | 58.69599 | 19188 ft | 430 kts | 101° |
| 2026-05-08 14:30 | 23.63611 | 58.72829 | 19768 ft | 434 kts | 101° |
| 2026-05-08 14:30 | 23.63050 | 58.76085 | 20306 ft | 439 kts | 101° |
| 2026-05-08 14:30 | 23.62480 | 58.79381 | 20827 ft | 445 kts | 101° |
| 2026-05-08 14:31 | 23.61902 | 58.82724 | 21344 ft | 450 kts | 101° |
| 2026-05-08 14:31 | 23.61325 | 58.86058 | 21856 ft | 455 kts | 101° |
| 2026-05-08 14:31 | 23.60733 | 58.89471 | 22376 ft | 459 kts | 101° |
| 2026-05-08 14:32 | 23.59530 | 58.96400 | 23379 ft | 468 kts | 101° |
| 2026-05-08 14:32 | 23.58925 | 58.99875 | 23803 ft | 472 kts | 101° |
| 2026-05-08 14:32 | 23.58307 | 59.03420 | 24231 ft | 475 kts | 101° |
| 2026-05-08 14:32 | 23.57686 | 59.06978 | 24659 ft | 479 kts | 101° |
| 2026-05-08 14:33 | 23.57067 | 59.10520 | 25091 ft | 482 kts | 101° |
| 2026-05-08 14:33 | 23.56438 | 59.14120 | 25513 ft | 485 kts | 101° |
| 2026-05-08 14:33 | 23.55802 | 59.17746 | 25918 ft | 488 kts | 101° |
| 2026-05-08 14:33 | 23.55139 | 59.21398 | 26325 ft | 491 kts | 102° |
| 2026-05-08 14:34 | 23.54421 | 59.25013 | 26721 ft | 494 kts | 103° |
| 2026-05-08 14:34 | 23.53659 | 59.28683 | 27104 ft | 498 kts | 103° |
| 2026-05-08 14:34 | 23.52878 | 59.32388 | 27483 ft | 501 kts | 103° |
| 2026-05-08 14:34 | 23.52093 | 59.36114 | 27855 ft | 504 kts | 103° |
| 2026-05-08 14:35 | 23.51319 | 59.39813 | 28230 ft | 506 kts | 103° |
| 2026-05-08 14:35 | 23.50538 | 59.43570 | 28573 ft | 509 kts | 103° |
| 2026-05-08 14:35 | 23.49756 | 59.47350 | 28898 ft | 512 kts | 103° |
| 2026-05-08 14:35 | 23.48972 | 59.51152 | 29210 ft | 515 kts | 103° |
| 2026-05-08 14:36 | 23.48193 | 59.54929 | 29495 ft | 517 kts | 103° |
| 2026-05-08 14:36 | 23.47399 | 59.58774 | 29769 ft | 520 kts | 103° |
| 2026-05-08 14:36 | 23.46603 | 59.62622 | 30058 ft | 521 kts | 103° |
| 2026-05-08 14:36 | 23.45803 | 59.66485 | 30434 ft | 519 kts | 103° |
| 2026-05-08 14:37 | 23.45009 | 59.70312 | 30850 ft | 517 kts | 103° |
| 2026-05-08 14:37 | 23.44224 | 59.74089 | 31266 ft | 515 kts | 103° |
| 2026-05-08 14:37 | 23.43432 | 59.77891 | 31636 ft | 514 kts | 103° |
| 2026-05-08 14:37 | 23.42640 | 59.81691 | 31996 ft | 513 kts | 103° |
| 2026-05-08 14:38 | 23.41847 | 59.85491 | 32357 ft | 512 kts | 103° |
| 2026-05-08 14:38 | 23.41064 | 59.89238 | 32737 ft | 511 kts | 103° |
| 2026-05-08 14:38 | 23.40274 | 59.93014 | 33112 ft | 510 kts | 103° |
| 2026-05-08 14:38 | 23.39484 | 59.96786 | 33487 ft | 509 kts | 103° |
| 2026-05-08 14:39 | 23.38696 | 60.00543 | 33826 ft | 508 kts | 103° |
| 2026-05-08 14:39 | 23.37914 | 60.04264 | 34131 ft | 508 kts | 103° |
| 2026-05-08 14:39 | 23.37126 | 60.08015 | 34428 ft | 507 kts | 103° |
| 2026-05-08 14:39 | 23.36334 | 60.11776 | 34714 ft | 507 kts | 103° |
| 2026-05-08 14:40 | 23.35553 | 60.15482 | 35008 ft | 506 kts | 103° |
| 2026-05-08 14:40 | 23.34764 | 60.19219 | 35302 ft | 506 kts | 103° |
| 2026-05-08 14:40 | 23.33974 | 60.22958 | 35578 ft | 505 kts | 103° |
| 2026-05-08 14:40 | 23.33184 | 60.26690 | 35853 ft | 505 kts | 104° |
| 2026-05-08 14:41 | 23.32393 | 60.30424 | 36116 ft | 504 kts | 104° |
| 2026-05-08 14:41 | 23.31612 | 60.34107 | 36382 ft | 504 kts | 104° |
| 2026-05-08 14:41 | 23.30819 | 60.37843 | 36634 ft | 504 kts | 104° |
| 2026-05-08 14:41 | 23.30025 | 60.41577 | 36687 ft | 508 kts | 104° |
| 2026-05-08 14:42 | 23.28434 | 60.49045 | 36735 ft | 508 kts | 104° |
| 2026-05-08 14:42 | 23.26843 | 60.56496 | 36734 ft | 502 kts | 104° |
| 2026-05-08 14:43 | 23.25271 | 60.63842 | 36743 ft | 500 kts | 104° |
| 2026-05-08 14:43 | 23.23692 | 60.71197 | 36742 ft | 500 kts | 104° |
| 2026-05-08 14:44 | 23.22112 | 60.78544 | 36745 ft | 500 kts | 104° |
| 2026-05-08 14:44 | 23.20516 | 60.85944 | 36744 ft | 501 kts | 104° |
| 2026-05-08 14:45 | 23.18925 | 60.93305 | 36746 ft | 503 kts | 104° |
| 2026-05-08 14:45 | 23.17319 | 61.00721 | 36749 ft | 504 kts | 104° |
| 2026-05-08 14:46 | 23.15704 | 61.08157 | 36749 ft | 505 kts | 104° |
| 2026-05-08 14:46 | 23.14092 | 61.15562 | 36748 ft | 505 kts | 104° |
| 2026-05-08 14:47 | 23.12477 | 61.22965 | 36750 ft | 505 kts | 104° |
| 2026-05-08 14:47 | 23.10851 | 61.30399 | 36750 ft | 505 kts | 104° |
| 2026-05-08 14:48 | 23.09224 | 61.37828 | 36752 ft | 505 kts | 104° |
| 2026-05-08 14:48 | 23.07617 | 61.45222 | 36753 ft | 504 kts | 102° |
| 2026-05-08 14:49 | 23.06812 | 61.52812 | 36750 ft | 504 kts | 90° |
| 2026-05-08 14:49 | 23.06900 | 61.60391 | 36760 ft | 504 kts | 89° |
| 2026-05-08 14:50 | 23.06987 | 61.68022 | 36757 ft | 504 kts | 90° |
| 2026-05-08 14:50 | 23.07008 | 61.75581 | 36754 ft | 504 kts | 90° |
| 2026-05-08 14:51 | 23.07011 | 61.83215 | 36759 ft | 504 kts | 90° |
| 2026-05-08 14:51 | 23.07009 | 61.90826 | 36758 ft | 504 kts | 90° |
| 2026-05-08 14:52 | 23.07004 | 62.02198 | 36765 ft | 504 kts | 90° |
| 2026-05-08 14:53 | 23.06997 | 62.09825 | 36762 ft | 504 kts | 90° |
| 2026-05-08 14:53 | 23.06986 | 62.17446 | 36762 ft | 504 kts | 90° |
| 2026-05-08 14:54 | 23.06971 | 62.25019 | 36762 ft | 504 kts | 90° |
| 2026-05-08 14:54 | 23.06953 | 62.32647 | 36764 ft | 504 kts | 90° |
| 2026-05-08 14:55 | 23.06931 | 62.40273 | 36764 ft | 504 kts | 90° |
| 2026-05-08 14:55 | 23.06905 | 62.47857 | 36770 ft | 504 kts | 90° |
| 2026-05-08 14:56 | 23.06876 | 62.55481 | 36767 ft | 504 kts | 90° |
| 2026-05-08 14:56 | 23.06843 | 62.63106 | 36768 ft | 504 kts | 90° |
| 2026-05-08 14:57 | 23.06807 | 62.70687 | 36767 ft | 504 kts | 90° |
| 2026-05-08 14:57 | 23.06767 | 62.78323 | 36770 ft | 504 kts | 90° |
| 2026-05-08 14:58 | 23.06723 | 62.85920 | 36770 ft | 505 kts | 90° |
| 2026-05-08 14:58 | 23.06675 | 62.93559 | 36773 ft | 505 kts | 90° |
| 2026-05-08 14:59 | 23.06624 | 63.01145 | 36772 ft | 505 kts | 90° |
| 2026-05-08 14:59 | 23.06540 | 63.12597 | 36775 ft | 505 kts | 90° |
| 2026-05-08 15:00 | 23.06480 | 63.20185 | 36774 ft | 505 kts | 90° |
| 2026-05-08 15:00 | 23.06416 | 63.27824 | 36778 ft | 505 kts | 90° |
| 2026-05-08 15:01 | 23.06349 | 63.35458 | 36779 ft | 505 kts | 90° |
| 2026-05-08 15:01 | 23.06289 | 63.41808 | 36780 ft | 505 kts | 90° |
| 2026-05-08 15:02 | 23.06215 | 63.49402 | 36783 ft | 505 kts | 90° |
| 2026-05-08 15:02 | 23.06137 | 63.57039 | 36780 ft | 505 kts | 90° |
| 2026-05-08 15:03 | 23.06056 | 63.64648 | 36786 ft | 505 kts | 90° |
| 2026-05-08 15:03 | 23.05971 | 63.72303 | 36787 ft | 506 kts | 90° |
| 2026-05-08 15:04 | 23.05882 | 63.79893 | 36782 ft | 506 kts | 90° |
| 2026-05-08 15:04 | 23.05745 | 63.87537 | 36787 ft | 506 kts | 93° |
| 2026-05-08 15:05 | 23.05028 | 63.95167 | 36793 ft | 507 kts | 96° |
| 2026-05-08 15:05 | 23.04208 | 64.02727 | 36788 ft | 507 kts | 96° |
| 2026-05-08 15:06 | 23.03402 | 64.10353 | 36792 ft | 507 kts | 96° |
| 2026-05-08 15:06 | 23.02625 | 64.17936 | 36791 ft | 507 kts | 95° |
| 2026-05-08 15:07 | 23.01845 | 64.25564 | 36796 ft | 507 kts | 96° |
| 2026-05-08 15:07 | 23.01062 | 64.33170 | 36798 ft | 507 kts | 96° |
| 2026-05-08 15:08 | 23.00272 | 64.40799 | 36797 ft | 507 kts | 96° |
| 2026-05-08 15:08 | 22.99482 | 64.48385 | 36800 ft | 507 kts | 96° |
| 2026-05-08 15:09 | 22.98689 | 64.55964 | 36801 ft | 508 kts | 96° |
| 2026-05-08 15:09 | 22.97888 | 64.63587 | 36800 ft | 508 kts | 96° |
| 2026-05-08 15:10 | 22.97083 | 64.71208 | 36804 ft | 508 kts | 96° |
| 2026-05-08 15:10 | 22.96278 | 64.78808 | 36800 ft | 508 kts | 96° |
| 2026-05-08 15:11 | 22.95727 | 64.86461 | 36801 ft | 507 kts | 89° |
| 2026-05-08 15:11 | 22.95786 | 64.94070 | 36813 ft | 507 kts | 88° |
| 2026-05-08 15:12 | 22.95889 | 65.01722 | 36804 ft | 507 kts | 88° |
| 2026-05-08 15:12 | 22.95955 | 65.09376 | 36807 ft | 507 kts | 88° |
| 2026-05-08 15:13 | 22.95994 | 65.17013 | 36808 ft | 507 kts | 88° |
| 2026-05-08 15:13 | 22.96023 | 65.24632 | 36807 ft | 507 kts | 88° |
| 2026-05-08 15:14 | 22.96051 | 65.32286 | 36811 ft | 507 kts | 89° |
| 2026-05-08 15:14 | 22.96076 | 65.39946 | 36812 ft | 506 kts | 89° |
| 2026-05-08 15:15 | 22.96098 | 65.47558 | 36817 ft | 506 kts | 89° |
| 2026-05-08 15:15 | 22.96116 | 65.55171 | 36814 ft | 506 kts | 89° |
| 2026-05-08 15:16 | 22.96131 | 65.62814 | 36813 ft | 506 kts | 89° |
| 2026-05-08 15:16 | 22.96142 | 65.70426 | 36814 ft | 505 kts | 89° |
| 2026-05-08 15:17 | 22.96150 | 65.78072 | 36819 ft | 505 kts | 89° |
| 2026-05-08 15:17 | 22.96154 | 65.85667 | 36816 ft | 505 kts | 89° |
| 2026-05-08 15:18 | 22.96154 | 65.93308 | 36820 ft | 505 kts | 89° |
| 2026-05-08 15:18 | 22.96150 | 66.00910 | 36819 ft | 505 kts | 89° |
| 2026-05-08 15:19 | 22.96143 | 66.08568 | 36822 ft | 506 kts | 89° |
| 2026-05-08 15:19 | 22.96133 | 66.16172 | 36820 ft | 506 kts | 89° |
| 2026-05-08 15:20 | 22.96118 | 66.23821 | 36824 ft | 506 kts | 89° |
| 2026-05-08 15:20 | 22.96100 | 66.31464 | 36824 ft | 507 kts | 89° |
| 2026-05-08 15:21 | 22.96078 | 66.39127 | 36828 ft | 507 kts | 89° |
| 2026-05-08 15:21 | 22.96053 | 66.46741 | 36828 ft | 507 kts | 89° |
| 2026-05-08 15:22 | 22.96024 | 66.54409 | 36827 ft | 508 kts | 89° |
| 2026-05-08 15:22 | 22.95991 | 66.62044 | 36828 ft | 508 kts | 89° |
| 2026-05-08 15:23 | 22.95954 | 66.69735 | 36831 ft | 508 kts | 89° |
| 2026-05-08 15:23 | 22.95914 | 66.77383 | 36829 ft | 509 kts | 89° |
| 2026-05-08 15:24 | 22.95870 | 66.85080 | 36829 ft | 509 kts | 89° |
| 2026-05-08 15:24 | 22.95824 | 66.92724 | 36831 ft | 509 kts | 89° |
| 2026-05-08 15:25 | 22.95789 | 67.00422 | 36834 ft | 509 kts | 88° |
| 2026-05-08 15:25 | 22.95812 | 67.08071 | 36830 ft | 509 kts | 88° |
| 2026-05-08 15:26 | 22.95839 | 67.15784 | 36832 ft | 509 kts | 88° |
| 2026-05-08 15:26 | 22.95855 | 67.23448 | 36835 ft | 510 kts | 88° |
| 2026-05-08 15:27 | 22.95861 | 67.31154 | 36837 ft | 510 kts | 88° |
| 2026-05-08 15:27 | 22.95864 | 67.38812 | 36836 ft | 510 kts | 88° |
| 2026-05-08 15:28 | 22.95863 | 67.46532 | 36836 ft | 510 kts | 88° |
| 2026-05-08 15:28 | 22.95859 | 67.54193 | 36834 ft | 510 kts | 88° |
| 2026-05-08 15:29 | 22.95851 | 67.61897 | 36840 ft | 510 kts | 88° |
| 2026-05-08 15:29 | 22.95840 | 67.69612 | 36840 ft | 511 kts | 88° |
| 2026-05-08 15:30 | 22.95825 | 67.77323 | 36839 ft | 511 kts | 88° |
| 2026-05-08 15:30 | 22.95806 | 67.85044 | 36840 ft | 511 kts | 88° |
| 2026-05-08 15:31 | 22.95797 | 67.92726 | 36838 ft | 511 kts | 88° |
| 2026-05-08 15:31 | 22.95810 | 68.00474 | 36836 ft | 511 kts | 88° |
| 2026-05-08 15:32 | 22.95819 | 68.08167 | 36840 ft | 512 kts | 88° |
| 2026-05-08 15:32 | 22.95820 | 68.15888 | 36841 ft | 512 kts | 88° |
| 2026-05-08 15:33 | 22.95816 | 68.23587 | 36842 ft | 512 kts | 88° |
| 2026-05-08 15:33 | 22.95809 | 68.31339 | 36838 ft | 512 kts | 88° |
| 2026-05-08 15:34 | 22.95761 | 68.39058 | 36840 ft | 513 kts | 90° |
| 2026-05-08 15:34 | 22.95359 | 68.46806 | 36845 ft | 514 kts | 92° |
| 2026-05-08 15:35 | 22.94865 | 68.54513 | 36844 ft | 514 kts | 92° |
| 2026-05-08 15:35 | 22.94383 | 68.62280 | 36843 ft | 514 kts | 91° |
| 2026-05-08 15:36 | 22.93999 | 68.68731 | 36845 ft | 515 kts | 91° |
| 2026-05-08 15:36 | 22.93469 | 68.77743 | 36846 ft | 515 kts | 91° |
| 2026-05-08 15:37 | 22.93007 | 68.85509 | 36845 ft | 515 kts | 91° |
| 2026-05-08 15:37 | 22.92543 | 68.93221 | 36844 ft | 515 kts | 91° |
| 2026-05-08 15:38 | 22.92070 | 69.01008 | 36848 ft | 515 kts | 91° |
| 2026-05-08 15:38 | 22.91594 | 69.08770 | 36850 ft | 515 kts | 91° |
| 2026-05-08 15:39 | 22.91117 | 69.16505 | 36845 ft | 516 kts | 92° |
| 2026-05-08 15:39 | 22.90635 | 69.24249 | 36848 ft | 516 kts | 92° |
| 2026-05-08 15:40 | 22.90146 | 69.32041 | 36848 ft | 516 kts | 92° |
| 2026-05-08 15:40 | 22.89657 | 69.39788 | 36849 ft | 516 kts | 92° |
| 2026-05-08 15:41 | 22.89162 | 69.47569 | 36850 ft | 516 kts | 92° |
| 2026-05-08 15:41 | 22.88665 | 69.55302 | 36850 ft | 517 kts | 92° |
| 2026-05-08 15:42 | 22.88162 | 69.63099 | 36846 ft | 517 kts | 92° |
| 2026-05-08 15:42 | 22.87658 | 69.70855 | 36849 ft | 517 kts | 92° |
| 2026-05-08 15:43 | 22.87192 | 69.78639 | 36849 ft | 517 kts | 91° |
| 2026-05-08 15:43 | 22.86753 | 69.86382 | 36848 ft | 517 kts | 91° |
| 2026-05-08 15:44 | 22.86302 | 69.94182 | 36851 ft | 517 kts | 91° |
| 2026-05-08 15:44 | 22.85842 | 70.01979 | 36845 ft | 518 kts | 91° |
| 2026-05-08 15:45 | 22.85378 | 70.09748 | 36843 ft | 518 kts | 91° |
| 2026-05-08 15:45 | 22.84906 | 70.17573 | 36846 ft | 518 kts | 91° |
| 2026-05-08 15:46 | 22.84435 | 70.25341 | 36843 ft | 518 kts | 91° |
| 2026-05-08 15:46 | 22.83957 | 70.33154 | 36845 ft | 519 kts | 91° |
| 2026-05-08 15:47 | 22.83478 | 70.40924 | 36847 ft | 519 kts | 91° |
| 2026-05-08 15:47 | 22.82991 | 70.48770 | 36849 ft | 519 kts | 91° |
| 2026-05-08 15:48 | 22.82257 | 70.60457 | 36847 ft | 519 kts | 91° |
| 2026-05-08 15:49 | 22.81764 | 70.68246 | 36845 ft | 520 kts | 91° |
| 2026-05-08 15:49 | 22.81264 | 70.76083 | 36848 ft | 520 kts | 91° |
| 2026-05-08 15:50 | 22.81036 | 70.83904 | 36846 ft | 518 kts | 84° |
| 2026-05-08 15:50 | 22.81930 | 70.91583 | 36855 ft | 514 kts | 77° |
| 2026-05-08 15:51 | 22.82944 | 70.97953 | 36850 ft | 515 kts | 77° |
| 2026-05-08 15:51 | 22.84153 | 71.05642 | 36840 ft | 516 kts | 77° |
| 2026-05-08 15:52 | 22.85310 | 71.13278 | 36839 ft | 516 kts | 78° |
| 2026-05-08 15:52 | 22.86456 | 71.20985 | 36835 ft | 517 kts | 78° |
| 2026-05-08 15:53 | 22.87591 | 71.28654 | 36830 ft | 517 kts | 78° |
| 2026-05-08 15:53 | 22.88731 | 71.36368 | 36827 ft | 517 kts | 78° |
| 2026-05-08 15:54 | 22.89867 | 71.44069 | 36824 ft | 518 kts | 78° |
| 2026-05-08 15:54 | 22.91004 | 71.51803 | 36816 ft | 518 kts | 78° |
| 2026-05-08 15:55 | 22.92132 | 71.59498 | 36817 ft | 519 kts | 78° |
| 2026-05-08 15:55 | 22.93819 | 71.71067 | 36811 ft | 519 kts | 78° |
| 2026-05-08 15:56 | 22.94945 | 71.78824 | 36812 ft | 519 kts | 78° |
| 2026-05-08 15:56 | 22.96067 | 71.86578 | 36804 ft | 520 kts | 78° |
| 2026-05-08 15:57 | 22.97179 | 71.94288 | 36798 ft | 520 kts | 78° |
| 2026-05-08 15:57 | 22.98297 | 72.02067 | 36797 ft | 520 kts | 78° |
| 2026-05-08 15:58 | 22.99403 | 72.09792 | 36794 ft | 521 kts | 78° |
| 2026-05-08 15:58 | 23.00513 | 72.17570 | 36796 ft | 521 kts | 78° |
| 2026-05-08 15:59 | 23.01622 | 72.25372 | 36794 ft | 522 kts | 78° |
| 2026-05-08 15:59 | 23.02721 | 72.33134 | 36784 ft | 522 kts | 78° |
| 2026-05-08 16:00 | 23.03823 | 72.40942 | 36782 ft | 522 kts | 78° |
| 2026-05-08 16:00 | 23.04915 | 72.48710 | 36778 ft | 523 kts | 78° |
| 2026-05-08 16:01 | 23.06011 | 72.56532 | 36780 ft | 523 kts | 78° |
| 2026-05-08 16:01 | 23.07033 | 72.64355 | 36776 ft | 525 kts | 82° |
| 2026-05-08 16:02 | 23.07518 | 72.72294 | 36782 ft | 527 kts | 84° |
| 2026-05-08 16:02 | 23.07904 | 72.80216 | 36782 ft | 527 kts | 84° |
| 2026-05-08 16:03 | 23.08313 | 72.88175 | 36785 ft | 527 kts | 83° |
| 2026-05-08 16:03 | 23.08747 | 72.96151 | 36793 ft | 528 kts | 83° |
| 2026-05-08 16:04 | 23.09184 | 73.04095 | 36793 ft | 528 kts | 83° |
| 2026-05-08 16:04 | 23.09617 | 73.12069 | 36798 ft | 528 kts | 83° |
| 2026-05-08 16:05 | 23.10044 | 73.20053 | 36806 ft | 529 kts | 83° |
| 2026-05-08 16:05 | 23.10465 | 73.27994 | 36797 ft | 529 kts | 83° |
| 2026-05-08 16:06 | 23.10884 | 73.35993 | 36794 ft | 529 kts | 83° |
| 2026-05-08 16:06 | 23.11297 | 73.43945 | 36798 ft | 529 kts | 83° |
| 2026-05-08 16:07 | 23.11708 | 73.51943 | 36800 ft | 530 kts | 83° |
| 2026-05-08 16:07 | 23.12115 | 73.59920 | 36801 ft | 530 kts | 84° |
| 2026-05-08 16:08 | 23.12518 | 73.67930 | 36807 ft | 530 kts | 84° |
| 2026-05-08 16:08 | 23.12917 | 73.75901 | 36805 ft | 530 kts | 84° |
| 2026-05-08 16:09 | 23.13312 | 73.83901 | 36817 ft | 530 kts | 84° |
| 2026-05-08 16:09 | 23.13703 | 73.91912 | 36821 ft | 531 kts | 84° |
| 2026-05-08 16:10 | 23.14092 | 73.99929 | 36829 ft | 531 kts | 84° |
| 2026-05-08 16:10 | 23.14474 | 74.07913 | 36821 ft | 531 kts | 84° |
| 2026-05-08 16:11 | 23.14853 | 74.15902 | 36827 ft | 532 kts | 84° |
| 2026-05-08 16:11 | 23.15230 | 74.23947 | 36833 ft | 532 kts | 84° |
| 2026-05-08 16:12 | 23.15601 | 74.31936 | 36837 ft | 532 kts | 84° |
| 2026-05-08 16:12 | 23.15896 | 74.39994 | 36839 ft | 533 kts | 85° |
| 2026-05-08 16:13 | 23.16037 | 74.48075 | 36851 ft | 534 kts | 86° |
| 2026-05-08 16:13 | 23.16164 | 74.56108 | 36850 ft | 534 kts | 86° |
| 2026-05-08 16:14 | 23.16313 | 74.64193 | 36856 ft | 534 kts | 86° |
| 2026-05-08 16:14 | 23.16472 | 74.72281 | 36855 ft | 535 kts | 86° |
| 2026-05-08 16:15 | 23.16627 | 74.80331 | 36863 ft | 535 kts | 86° |
| 2026-05-08 16:15 | 23.16776 | 74.88433 | 36867 ft | 535 kts | 86° |
| 2026-05-08 16:16 | 23.16919 | 74.96477 | 36873 ft | 535 kts | 86° |
| 2026-05-08 16:16 | 23.17059 | 75.04558 | 36875 ft | 536 kts | 86° |
| 2026-05-08 16:17 | 23.17173 | 75.11313 | 36876 ft | 536 kts | 86° |
| 2026-05-08 16:17 | 23.17328 | 75.20785 | 36885 ft | 536 kts | 86° |
| 2026-05-08 16:18 | 23.17455 | 75.28841 | 36882 ft | 536 kts | 86° |
| 2026-05-08 16:18 | 23.17579 | 75.36965 | 36885 ft | 536 kts | 86° |
| 2026-05-08 16:19 | 23.17699 | 75.45090 | 36892 ft | 536 kts | 86° |
| 2026-05-08 16:19 | 23.17814 | 75.53161 | 36895 ft | 537 kts | 86° |
| 2026-05-08 16:20 | 23.17926 | 75.61290 | 36885 ft | 537 kts | 86° |
| 2026-05-08 16:20 | 23.18033 | 75.69373 | 36890 ft | 537 kts | 86° |
| 2026-05-08 16:21 | 23.18136 | 75.77503 | 36887 ft | 537 kts | 86° |
| 2026-05-08 16:21 | 23.18236 | 75.85631 | 36889 ft | 537 kts | 86° |
| 2026-05-08 16:22 | 23.18331 | 75.93713 | 36895 ft | 537 kts | 86° |
| 2026-05-08 16:22 | 23.18500 | 76.01855 | 36882 ft | 536 kts | 83° |
| 2026-05-08 16:23 | 23.19100 | 76.09886 | 36892 ft | 536 kts | 82° |
| 2026-05-08 16:23 | 23.19779 | 76.17965 | 36881 ft | 536 kts | 82° |
| 2026-05-08 16:24 | 23.20430 | 76.26064 | 36887 ft | 536 kts | 82° |
| 2026-05-08 16:24 | 23.21050 | 76.34156 | 36880 ft | 537 kts | 82° |
| 2026-05-08 16:25 | 23.21658 | 76.42229 | 36889 ft | 537 kts | 83° |
| 2026-05-08 16:25 | 23.22262 | 76.50284 | 36889 ft | 537 kts | 82° |
| 2026-05-08 16:26 | 23.22869 | 76.58392 | 36884 ft | 537 kts | 83° |
| 2026-05-08 16:26 | 23.23471 | 76.66497 | 36873 ft | 538 kts | 83° |
| 2026-05-08 16:27 | 23.24066 | 76.74558 | 36885 ft | 538 kts | 83° |
| 2026-05-08 16:27 | 23.24661 | 76.82689 | 36885 ft | 538 kts | 83° |
| 2026-05-08 16:28 | 23.25249 | 76.90774 | 36874 ft | 538 kts | 83° |
| 2026-05-08 16:28 | 23.25834 | 76.98879 | 36882 ft | 538 kts | 83° |
| 2026-05-08 16:29 | 23.26416 | 77.07002 | 36883 ft | 539 kts | 83° |
| 2026-05-08 16:29 | 23.26996 | 77.15148 | 36884 ft | 539 kts | 83° |
| 2026-05-08 16:30 | 23.27567 | 77.23240 | 36887 ft | 539 kts | 83° |
| 2026-05-08 16:30 | 23.28139 | 77.31394 | 36883 ft | 540 kts | 83° |
| 2026-05-08 16:31 | 23.28186 | 77.39550 | 36892 ft | 542 kts | 90° |
| 2026-05-08 16:31 | 23.27802 | 77.47758 | 36889 ft | 543 kts | 91° |
| 2026-05-08 16:32 | 23.27404 | 77.55978 | 36883 ft | 543 kts | 91° |
| 2026-05-08 16:32 | 23.27048 | 77.64154 | 36878 ft | 544 kts | 91° |
| 2026-05-08 16:33 | 23.26707 | 77.72389 | 36875 ft | 544 kts | 91° |
| 2026-05-08 16:33 | 23.26362 | 77.80628 | 36877 ft | 544 kts | 91° |
| 2026-05-08 16:34 | 23.26011 | 77.88817 | 36873 ft | 544 kts | 91° |
| 2026-05-08 16:34 | 23.25652 | 77.97067 | 36872 ft | 544 kts | 91° |
| 2026-05-08 16:35 | 23.25291 | 78.05251 | 36881 ft | 545 kts | 91° |
| 2026-05-08 16:35 | 23.24923 | 78.13506 | 36872 ft | 545 kts | 91° |
| 2026-05-08 16:36 | 23.24550 | 78.21760 | 36874 ft | 546 kts | 91° |
| 2026-05-08 16:36 | 23.24175 | 78.29983 | 36875 ft | 546 kts | 91° |
| 2026-05-08 16:37 | 23.23795 | 78.38229 | 36876 ft | 546 kts | 92° |
| 2026-05-08 16:37 | 23.23412 | 78.46449 | 36876 ft | 546 kts | 92° |
| 2026-05-08 16:38 | 23.23022 | 78.54712 | 36878 ft | 547 kts | 92° |
| 2026-05-08 16:38 | 23.22693 | 78.61602 | 36874 ft | 547 kts | 92° |
| 2026-05-08 16:39 | 23.22230 | 78.71224 | 36856 ft | 548 kts | 92° |
| 2026-05-08 16:39 | 23.21917 | 78.79501 | 36867 ft | 548 kts | 90° |
| 2026-05-08 16:40 | 23.21842 | 78.86417 | 36866 ft | 549 kts | 89° |
| 2026-05-08 16:40 | 23.21777 | 78.94686 | 36865 ft | 550 kts | 90° |
| 2026-05-08 16:41 | 23.21666 | 79.02999 | 36866 ft | 550 kts | 90° |
| 2026-05-08 16:42 | 23.21453 | 79.15517 | 36860 ft | 551 kts | 90° |
| 2026-05-08 16:42 | 23.21308 | 79.23816 | 36862 ft | 551 kts | 90° |
| 2026-05-08 16:43 | 23.21160 | 79.32167 | 36860 ft | 551 kts | 90° |
| 2026-05-08 16:43 | 23.21010 | 79.40451 | 36857 ft | 550 kts | 90° |
| 2026-05-08 16:44 | 23.20854 | 79.48785 | 36858 ft | 549 kts | 90° |
| 2026-05-08 16:44 | 23.20696 | 79.57039 | 36860 ft | 549 kts | 91° |
| 2026-05-08 16:45 | 23.20401 | 79.65360 | 36857 ft | 548 kts | 92° |
| 2026-05-08 16:45 | 23.20016 | 79.73609 | 36857 ft | 548 kts | 92° |
| 2026-05-08 16:46 | 23.19647 | 79.81852 | 36855 ft | 548 kts | 92° |
| 2026-05-08 16:46 | 23.19293 | 79.90154 | 36858 ft | 549 kts | 92° |
| 2026-05-08 16:47 | 23.18936 | 79.98460 | 36859 ft | 550 kts | 92° |
| 2026-05-08 16:47 | 23.18573 | 80.06718 | 36862 ft | 550 kts | 92° |
| 2026-05-08 16:48 | 23.18163 | 80.15039 | 36867 ft | 550 kts | 93° |
| 2026-05-08 16:48 | 23.17724 | 80.23365 | 36866 ft | 550 kts | 93° |
| 2026-05-08 16:49 | 23.17289 | 80.31621 | 36869 ft | 550 kts | 94° |
| 2026-05-08 16:49 | 23.16854 | 80.39938 | 36876 ft | 550 kts | 94° |
| 2026-05-08 16:50 | 23.16418 | 80.48198 | 36881 ft | 550 kts | 94° |
| 2026-05-08 16:50 | 23.15974 | 80.56512 | 36883 ft | 550 kts | 94° |
| 2026-05-08 16:51 | 23.15525 | 80.64834 | 36891 ft | 549 kts | 94° |
| 2026-05-08 16:51 | 23.15076 | 80.73092 | 36890 ft | 549 kts | 94° |
| 2026-05-08 16:52 | 23.14624 | 80.81350 | 36897 ft | 549 kts | 94° |
| 2026-05-08 16:52 | 23.14171 | 80.89637 | 36896 ft | 549 kts | 94° |
| 2026-05-08 16:53 | 23.13486 | 81.02061 | 36906 ft | 549 kts | 94° |
| 2026-05-08 16:53 | 23.13022 | 81.10362 | 36905 ft | 549 kts | 94° |
| 2026-05-08 16:54 | 23.12557 | 81.18596 | 36902 ft | 550 kts | 94° |
| 2026-05-08 16:54 | 23.12083 | 81.26898 | 36909 ft | 550 kts | 94° |
| 2026-05-08 16:55 | 23.11605 | 81.35212 | 36893 ft | 550 kts | 94° |
| 2026-05-08 16:55 | 23.11125 | 81.43493 | 36905 ft | 550 kts | 94° |
| 2026-05-08 16:56 | 23.10638 | 81.51800 | 36904 ft | 551 kts | 95° |
| 2026-05-08 16:56 | 23.10149 | 81.60075 | 36899 ft | 551 kts | 95° |
| 2026-05-08 16:57 | 23.09653 | 81.68396 | 36905 ft | 551 kts | 95° |
| 2026-05-08 16:57 | 23.09153 | 81.76709 | 36901 ft | 551 kts | 95° |
| 2026-05-08 16:58 | 23.08648 | 81.85041 | 36900 ft | 551 kts | 95° |
| 2026-05-08 16:58 | 23.08142 | 81.93311 | 36902 ft | 551 kts | 95° |
| 2026-05-08 16:59 | 23.07627 | 82.01647 | 36900 ft | 551 kts | 95° |
| 2026-05-08 16:59 | 23.07112 | 82.09929 | 36901 ft | 551 kts | 95° |
| 2026-05-08 17:00 | 23.06596 | 82.18254 | 36897 ft | 551 kts | 95° |
| 2026-05-08 17:00 | 23.06211 | 82.26538 | 36896 ft | 551 kts | 94° |
| 2026-05-08 17:01 | 23.05886 | 82.34808 | 36900 ft | 551 kts | 93° |
| 2026-05-08 17:01 | 23.05542 | 82.43146 | 36904 ft | 551 kts | 94° |
| 2026-05-08 17:02 | 23.05173 | 82.51466 | 36899 ft | 551 kts | 94° |
| 2026-05-08 17:02 | 23.04796 | 82.59745 | 36902 ft | 551 kts | 94° |
| 2026-05-08 17:03 | 23.04414 | 82.68061 | 36907 ft | 550 kts | 94° |
| 2026-05-08 17:03 | 23.04033 | 82.76307 | 36910 ft | 550 kts | 94° |
| 2026-05-08 17:04 | 23.03646 | 82.84602 | 36912 ft | 550 kts | 94° |
| 2026-05-08 17:04 | 23.03256 | 82.92858 | 36919 ft | 549 kts | 94° |
| 2026-05-08 17:05 | 23.02860 | 83.01157 | 36930 ft | 550 kts | 94° |
| 2026-05-08 17:05 | 23.02458 | 83.09470 | 36928 ft | 550 kts | 95° |
| 2026-05-08 17:06 | 23.02053 | 83.17769 | 36932 ft | 550 kts | 95° |
| 2026-05-08 17:06 | 23.01646 | 83.26020 | 36941 ft | 550 kts | 95° |
| 2026-05-08 17:07 | 23.01231 | 83.34346 | 36957 ft | 551 kts | 95° |
| 2026-05-08 17:07 | 23.00815 | 83.42601 | 36954 ft | 551 kts | 95° |
| 2026-05-08 17:08 | 23.00391 | 83.50937 | 36967 ft | 551 kts | 95° |
| 2026-05-08 17:08 | 22.99965 | 83.59209 | 36967 ft | 552 kts | 95° |
| 2026-05-08 17:09 | 22.99534 | 83.67512 | 36978 ft | 552 kts | 95° |
| 2026-05-08 17:09 | 22.99097 | 83.75848 | 36969 ft | 552 kts | 95° |
| 2026-05-08 17:10 | 22.98658 | 83.84134 | 36977 ft | 552 kts | 95° |
| 2026-05-08 17:10 | 22.98211 | 83.92471 | 36973 ft | 551 kts | 95° |
| 2026-05-08 17:11 | 22.97764 | 84.00740 | 36974 ft | 551 kts | 95° |
| 2026-05-08 17:11 | 22.97311 | 84.09067 | 36983 ft | 551 kts | 95° |
| 2026-05-08 17:12 | 22.96826 | 84.17344 | 36988 ft | 550 kts | 96° |
| 2026-05-08 17:12 | 22.96225 | 84.25626 | 36981 ft | 550 kts | 97° |
| 2026-05-08 17:13 | 22.95601 | 84.33916 | 36983 ft | 550 kts | 97° |
| 2026-05-08 17:13 | 22.94994 | 84.42148 | 36990 ft | 550 kts | 97° |
| 2026-05-08 17:14 | 22.94390 | 84.50438 | 36983 ft | 550 kts | 97° |
| 2026-05-08 17:14 | 22.93783 | 84.58719 | 36987 ft | 550 kts | 97° |
| 2026-05-08 17:15 | 22.93173 | 84.66974 | 36987 ft | 550 kts | 97° |
| 2026-05-08 17:15 | 22.92555 | 84.75255 | 36990 ft | 550 kts | 97° |
| 2026-05-08 17:16 | 22.91935 | 84.83508 | 36990 ft | 550 kts | 97° |
| 2026-05-08 17:16 | 22.91312 | 84.91742 | 36996 ft | 550 kts | 97° |
| 2026-05-08 17:17 | 22.90681 | 85.00030 | 36994 ft | 549 kts | 97° |
| 2026-05-08 17:17 | 22.90048 | 85.08290 | 36998 ft | 549 kts | 97° |
| 2026-05-08 17:18 | 22.89415 | 85.16495 | 36995 ft | 549 kts | 97° |
| 2026-05-08 17:18 | 22.88773 | 85.24767 | 37000 ft | 549 kts | 97° |
| 2026-05-08 17:19 | 22.88128 | 85.33036 | 37000 ft | 549 kts | 97° |
| 2026-05-08 17:19 | 22.87483 | 85.41246 | 36999 ft | 549 kts | 97° |
| 2026-05-08 17:20 | 22.86830 | 85.49498 | 36986 ft | 549 kts | 97° |
| 2026-05-08 17:20 | 22.86177 | 85.57718 | 36988 ft | 549 kts | 98° |
| 2026-05-08 17:21 | 22.85514 | 85.65987 | 36973 ft | 548 kts | 97° |
| 2026-05-08 17:21 | 22.84854 | 85.74181 | 36982 ft | 547 kts | 98° |
| 2026-05-08 17:22 | 22.84185 | 85.82427 | 36979 ft | 548 kts | 98° |
| 2026-05-08 17:22 | 22.83516 | 85.90615 | 36973 ft | 548 kts | 98° |
| 2026-05-08 17:23 | 22.82837 | 85.98877 | 36966 ft | 549 kts | 98° |
| 2026-05-08 17:23 | 22.82160 | 86.07064 | 36965 ft | 548 kts | 98° |
| 2026-05-08 17:24 | 22.81473 | 86.15326 | 36968 ft | 548 kts | 98° |
| 2026-05-08 17:24 | 22.80880 | 86.23532 | 36959 ft | 548 kts | 96° |
| 2026-05-08 17:25 | 22.80473 | 86.31809 | 36948 ft | 548 kts | 95° |
| 2026-05-08 17:25 | 22.80079 | 86.40076 | 36953 ft | 548 kts | 96° |
| 2026-05-08 17:26 | 22.79650 | 86.48285 | 36945 ft | 547 kts | 96° |
| 2026-05-08 17:26 | 22.79198 | 86.56492 | 36935 ft | 547 kts | 96° |
| 2026-05-08 17:27 | 22.78737 | 86.64728 | 36936 ft | 546 kts | 96° |
| 2026-05-08 17:27 | 22.78278 | 86.72921 | 36929 ft | 546 kts | 96° |
| 2026-05-08 17:28 | 22.77892 | 86.79753 | 36928 ft | 545 kts | 96° |
| 2026-05-08 17:28 | 22.77350 | 86.89302 | 36922 ft | 545 kts | 96° |
| 2026-05-08 17:29 | 22.76958 | 86.96120 | 36906 ft | 544 kts | 96° |
| 2026-05-08 17:29 | 22.76482 | 87.04343 | 36917 ft | 544 kts | 96° |
| 2026-05-08 17:30 | 22.76007 | 87.12493 | 36911 ft | 544 kts | 96° |
| 2026-05-08 17:30 | 22.75526 | 87.20651 | 36904 ft | 544 kts | 96° |
| 2026-05-08 17:31 | 22.75039 | 87.28842 | 36917 ft | 545 kts | 96° |
| 2026-05-08 17:31 | 22.74548 | 87.37047 | 36911 ft | 545 kts | 96° |
| 2026-05-08 17:32 | 22.74054 | 87.45211 | 36898 ft | 545 kts | 97° |
| 2026-05-08 17:32 | 22.73554 | 87.53423 | 36910 ft | 545 kts | 97° |
| 2026-05-08 17:33 | 22.73052 | 87.61584 | 36910 ft | 546 kts | 97° |
| 2026-05-08 17:33 | 22.72543 | 87.69804 | 36904 ft | 546 kts | 97° |
| 2026-05-08 17:34 | 22.72028 | 87.78040 | 36899 ft | 547 kts | 97° |
| 2026-05-08 17:34 | 22.71511 | 87.86237 | 36911 ft | 547 kts | 97° |
| 2026-05-08 17:35 | 22.70988 | 87.94480 | 36895 ft | 548 kts | 97° |
| 2026-05-08 17:35 | 22.70461 | 88.02715 | 36908 ft | 548 kts | 97° |
| 2026-05-08 17:36 | 22.69932 | 88.10901 | 36901 ft | 547 kts | 97° |
| 2026-05-08 17:36 | 22.69399 | 88.19106 | 36886 ft | 547 kts | 97° |
| 2026-05-08 17:37 | 22.68859 | 88.27335 | 36886 ft | 546 kts | 97° |
| 2026-05-08 17:37 | 22.68319 | 88.35515 | 36877 ft | 545 kts | 97° |
| 2026-05-08 17:38 | 22.68596 | 88.43728 | 36882 ft | 549 kts | 79° |
| 2026-05-08 17:38 | 22.71158 | 88.51467 | 36878 ft | 550 kts | 59° |
| 2026-05-08 17:39 | 22.75189 | 88.58525 | 36891 ft | 550 kts | 56° |
| 2026-05-08 17:39 | 22.79267 | 88.65550 | 36889 ft | 551 kts | 57° |
| 2026-05-08 17:40 | 22.83245 | 88.72646 | 36899 ft | 552 kts | 58° |
| 2026-05-08 17:40 | 22.87183 | 88.79765 | 36903 ft | 553 kts | 58° |
| 2026-05-08 17:41 | 22.91161 | 88.86943 | 36902 ft | 553 kts | 58° |
| 2026-05-08 17:41 | 22.95167 | 88.94016 | 36900 ft | 552 kts | 56° |
| 2026-05-08 17:42 | 22.99415 | 89.00974 | 36899 ft | 552 kts | 54° |
| 2026-05-08 17:42 | 23.03690 | 89.07914 | 36833 ft | 549 kts | 55° |
| 2026-05-08 17:43 | 23.05760 | 89.11314 | 36561 ft | 540 kts | 55° |
| 2026-05-08 17:43 | 23.07821 | 89.14722 | 35931 ft | 538 kts | 55° |
| 2026-05-08 17:43 | 23.09887 | 89.18149 | 34971 ft | 545 kts | 56° |
| 2026-05-08 17:43 | 23.11978 | 89.21624 | 33935 ft | 553 kts | 56° |
| 2026-05-08 17:44 | 23.14098 | 89.25149 | 32771 ft | 560 kts | 56° |
| 2026-05-08 17:44 | 23.16210 | 89.28664 | 31724 ft | 564 kts | 56° |
| 2026-05-08 17:44 | 23.18372 | 89.32263 | 30721 ft | 566 kts | 56° |
| 2026-05-08 17:44 | 23.20540 | 89.35873 | 29763 ft | 567 kts | 56° |
| 2026-05-08 17:45 | 23.22662 | 89.39408 | 29061 ft | 559 kts | 56° |
| 2026-05-08 17:45 | 23.24766 | 89.42918 | 28511 ft | 548 kts | 56° |
| 2026-05-08 17:45 | 23.26839 | 89.46377 | 27974 ft | 539 kts | 56° |
| 2026-05-08 17:45 | 23.28871 | 89.49769 | 27425 ft | 530 kts | 56° |
| 2026-05-08 17:46 | 23.30849 | 89.53072 | 26841 ft | 523 kts | 56° |
| 2026-05-08 17:46 | 23.32831 | 89.56383 | 26239 ft | 517 kts | 56° |
| 2026-05-08 17:46 | 23.34789 | 89.59658 | 25664 ft | 510 kts | 56° |
| 2026-05-08 17:46 | 23.36698 | 89.62851 | 25132 ft | 503 kts | 56° |
| 2026-05-08 17:47 | 23.38585 | 89.66030 | 24614 ft | 497 kts | 57° |
| 2026-05-08 17:47 | 23.40404 | 89.69221 | 24089 ft | 490 kts | 58° |
| 2026-05-08 17:47 | 23.42159 | 89.72382 | 23580 ft | 484 kts | 58° |
| 2026-05-08 17:47 | 23.43302 | 89.74455 | 23185 ft | 480 kts | 59° |
| 2026-05-08 17:48 | 23.45564 | 89.78559 | 22342 ft | 473 kts | 58° |
| 2026-05-08 17:48 | 23.47258 | 89.81617 | 21706 ft | 469 kts | 58° |
| 2026-05-08 17:48 | 23.48947 | 89.84654 | 21104 ft | 464 kts | 58° |
| 2026-05-08 17:48 | 23.50606 | 89.87631 | 20518 ft | 460 kts | 58° |
| 2026-05-08 17:49 | 23.52263 | 89.90604 | 19942 ft | 455 kts | 58° |
| 2026-05-08 17:49 | 23.53905 | 89.93551 | 19374 ft | 451 kts | 58° |
| 2026-05-08 17:49 | 23.55523 | 89.96460 | 18892 ft | 446 kts | 58° |
| 2026-05-08 17:49 | 23.57067 | 89.99237 | 18759 ft | 417 kts | 59° |
| 2026-05-08 17:50 | 23.58523 | 90.01858 | 18594 ft | 391 kts | 58° |
| 2026-05-08 17:50 | 23.59895 | 90.04328 | 18421 ft | 368 kts | 59° |
| 2026-05-08 17:50 | 23.61206 | 90.06610 | 18148 ft | 351 kts | 57° |
| 2026-05-08 17:50 | 23.62541 | 90.08801 | 17646 ft | 342 kts | 56° |
| 2026-05-08 17:51 | 23.63865 | 90.10937 | 17064 ft | 337 kts | 56° |
| 2026-05-08 17:51 | 23.65160 | 90.13027 | 16439 ft | 333 kts | 56° |
| 2026-05-08 17:51 | 23.66450 | 90.15117 | 15821 ft | 330 kts | 56° |
| 2026-05-08 17:51 | 23.67724 | 90.17191 | 15236 ft | 326 kts | 56° |
| 2026-05-08 17:52 | 23.68984 | 90.19250 | 14674 ft | 323 kts | 56° |
| 2026-05-08 17:52 | 23.70223 | 90.21278 | 14113 ft | 319 kts | 56° |
| 2026-05-08 17:52 | 23.72646 | 90.25255 | 12948 ft | 312 kts | 56° |
| 2026-05-08 17:53 | 23.73843 | 90.27220 | 12374 ft | 308 kts | 55° |
| 2026-05-08 17:53 | 23.75024 | 90.29161 | 11812 ft | 304 kts | 55° |
| 2026-05-08 17:53 | 23.76177 | 90.31063 | 11242 ft | 301 kts | 55° |
| 2026-05-08 17:53 | 23.77318 | 90.32965 | 10712 ft | 298 kts | 55° |
| 2026-05-08 17:54 | 23.78442 | 90.34861 | 10165 ft | 294 kts | 55° |
| 2026-05-08 17:54 | 23.79530 | 90.36714 | 9637 ft | 291 kts | 55° |
| 2026-05-08 17:54 | 23.80613 | 90.38575 | 9057 ft | 288 kts | 55° |
| 2026-05-08 17:54 | 23.81685 | 90.40421 | 8471 ft | 286 kts | 56° |
| 2026-05-08 17:55 | 23.82748 | 90.42250 | 7919 ft | 283 kts | 56° |
| 2026-05-08 17:55 | 23.83788 | 90.44036 | 7377 ft | 281 kts | 56° |
| 2026-05-08 17:55 | 23.84834 | 90.45827 | 6850 ft | 278 kts | 56° |
| 2026-05-08 17:55 | 23.85878 | 90.47599 | 6368 ft | 273 kts | 53° |
| 2026-05-08 17:56 | 23.87214 | 90.48994 | 5958 ft | 261 kts | 26° |
| 2026-05-08 17:56 | 23.88917 | 90.49479 | 5606 ft | 251 kts | 355° |
| 2026-05-08 17:56 | 23.90536 | 90.49009 | 5367 ft | 241 kts | 332° |
| 2026-05-08 17:56 | 23.91999 | 90.48124 | 5112 ft | 238 kts | 327° |
| 2026-05-08 17:57 | 23.93399 | 90.47168 | 4852 ft | 236 kts | 324° |
| 2026-05-08 17:57 | 23.94722 | 90.46137 | 4555 ft | 233 kts | 315° |
| 2026-05-08 17:57 | 23.95788 | 90.44804 | 4244 ft | 233 kts | 306° |
| 2026-05-08 17:57 | 23.96757 | 90.43372 | 3939 ft | 235 kts | 305° |
| 2026-05-08 17:58 | 23.97711 | 90.41932 | 3639 ft | 236 kts | 305° |
| 2026-05-08 17:58 | 23.98672 | 90.40472 | 3326 ft | 237 kts | 305° |
| 2026-05-08 17:58 | 23.99631 | 90.39004 | 3083 ft | 234 kts | 305° |
| 2026-05-08 17:58 | 24.00552 | 90.37588 | 3023 ft | 222 kts | 304° |
| 2026-05-08 17:59 | 24.01422 | 90.36246 | 2992 ft | 207 kts | 304° |
| 2026-05-08 17:59 | 24.02216 | 90.35021 | 2961 ft | 193 kts | 304° |
| 2026-05-08 17:59 | 24.02885 | 90.33750 | 2984 ft | 194 kts | 282° |
| 2026-05-08 17:59 | 24.02792 | 90.32312 | 3037 ft | 192 kts | 246° |
| 2026-05-08 18:00 | 24.02110 | 90.31050 | 3020 ft | 195 kts | 237° |
| 2026-05-08 18:00 | 24.00375 | 90.28889 | 2989 ft | 190 kts | 201° |
| 2026-05-08 18:00 | 23.99070 | 90.28853 | 3002 ft | 193 kts | 163° |
| 2026-05-08 18:01 | 23.97813 | 90.29443 | 2846 ft | 200 kts | 154° |
| 2026-05-08 18:01 | 23.96625 | 90.30151 | 2607 ft | 191 kts | 151° |
| 2026-05-08 18:01 | 23.95524 | 90.30888 | 2339 ft | 178 kts | 146° |
| 2026-05-08 18:01 | 23.94540 | 90.31645 | 2127 ft | 170 kts | 144° |
| 2026-05-08 18:02 | 23.93588 | 90.32402 | 1926 ft | 172 kts | 143° |
| 2026-05-08 18:02 | 23.92934 | 90.32925 | 1772 ft | 170 kts | 143° |
| 2026-05-08 18:02 | 23.91725 | 90.33890 | 1478 ft | 155 kts | 143° |
| 2026-05-08 18:02 | 23.90848 | 90.34590 | 1302 ft | 157 kts | 143° |
| 2026-05-08 18:03 | 23.89980 | 90.35283 | 1097 ft | 154 kts | 143° |
| 2026-05-08 18:03 | 23.89113 | 90.35975 | 907 ft | 153 kts | 142° |
| 2026-05-08 18:03 | 23.88257 | 90.36658 | 715 ft | 151 kts | 143° |
| 2026-05-08 18:03 | 23.87418 | 90.37327 | 525 ft | 150 kts | 143° |
| 2026-05-08 18:04 | 23.86583 | 90.37997 | 325 ft | 147 kts | 142° |
| 2026-05-08 18:04 | 23.85748 | 90.38659 | 142 ft | 148 kts | 143° |
| 2026-05-08 18:04 | 23.84926 | 90.39316 | 42 ft | 138 kts | 143° |
| 2026-05-08 18:04 | 23.84303 | 90.39812 | 41 ft | 86 kts | 144° |
| 2026-05-08 18:05 | 23.83947 | 90.40096 | 43 ft | 54 kts | 144° |
| 2026-05-08 18:05 | 23.83815 | 90.40216 | 44 ft | 16 kts | 129° |
| 2026-05-08 18:05 | 23.83755 | 90.40318 | 43 ft | 16 kts | 116° |
| 2026-05-08 18:05 | 23.83711 | 90.40431 | 41 ft | 16 kts | 109° |
| 2026-05-08 18:06 | 23.83698 | 90.40515 | 41 ft | 0 kts | 92° |
| 2026-05-08 18:06 | 23.83698 | 90.40524 | 41 ft | 2 kts | 90° |
| 2026-05-08 18:06 | 23.83698 | 90.40542 | 41 ft | 3 kts | 86° |
| 2026-05-08 18:06 | 23.83702 | 90.40570 | 41 ft | 4 kts | 80° |
| 2026-05-08 18:07 | 23.83711 | 90.40607 | 41 ft | 6 kts | 72° |
| 2026-05-08 18:07 | 23.83728 | 90.40648 | 41 ft | 7 kts | 62° |
| 2026-05-08 18:07 | 23.83755 | 90.40693 | 41 ft | 8 kts | 54° |
| 2026-05-08 18:07 | 23.83788 | 90.40743 | 41 ft | 9 kts | 54° |
| 2026-05-08 18:08 | 23.83825 | 90.40798 | 41 ft | 9 kts | 54° |
| 2026-05-08 18:08 | 23.83867 | 90.40856 | 40 ft | 10 kts | 36° |
| 2026-05-08 18:08 | 23.83927 | 90.40838 | 41 ft | 10 kts | 301° |
| 2026-05-08 18:08 | 23.83956 | 90.40767 | 41 ft | 10 kts | 300° |
| 2026-05-08 18:09 | 23.84003 | 90.40709 | 41 ft | 11 kts | 320° |
| 2026-05-08 18:09 | 23.84064 | 90.40659 | 41 ft | 11 kts | 323° |
| 2026-05-08 18:09 | 23.84130 | 90.40606 | 41 ft | 12 kts | 323° |
| 2026-05-08 18:09 | 23.84201 | 90.40550 | 41 ft | 13 kts | 324° |
| 2026-05-08 18:10 | 23.84284 | 90.40538 | 41 ft | 13 kts | 38° |
| 2026-05-08 18:10 | 23.84349 | 90.40607 | 41 ft | 13 kts | 11° |
| 2026-05-08 18:10 | 23.84415 | 90.40568 | 41 ft | 5 kts | 324° |
| 2026-05-08 18:10 | 23.84448 | 90.40542 | 41 ft | 7 kts | 324° |
| 2026-05-08 18:11 | 23.84499 | 90.40501 | 41 ft | 12 kts | 324° |
| 2026-05-08 18:11 | 23.84572 | 90.40444 | 41 ft | 13 kts | 324° |
| 2026-05-08 18:11 | 23.84647 | 90.40385 | 41 ft | 14 kts | 324° |
| 2026-05-08 18:11 | 23.84686 | 90.40370 | 41 ft | 4 kts | 25° |
| 2026-05-08 18:12 | 23.84709 | 90.40390 | 41 ft | 5 kts | 46° |
| 2026-05-08 18:12 | 23.84721 | 90.40406 | 39 ft | 1 kts | 52° |
| 2026-05-08 18:12 | 23.84728 | 90.40416 | 40 ft | 0 kts | 53° |
| 2026-05-08 18:12 | 23.84731 | 90.40421 | 40 ft | 0 kts | 53° |